Abel Tasman — PCVM — position and weather

sailwx.info

Track history (hours):
 
Tides and Currents Weather Stations Pressure Air Temp Water Temp Dewpoint Dewpoint Depression Visibility Wind Speed Wind Dir Waves Ship Positions

Abel Tasman (Netherlands)

Last reported at 2018-Aug-14 07:00 UTC. Time now 2018-Aug-14 07:04 UTC.
Position N 54°34' E 011°56'.

Length 38 m; draft 2.4 m.

Type: Sailing vessel. MMSI: 245877000.

Date/timePositionNaut miles runAvg speedWind from/ knotsBaromVisibWave heightAir tempDewpointWater temp
2018-Aug-14 07:00N 54°34' E 011°56'0 0.0
2018-Aug-14 06:30N 54°34' E 011°56'0 0.0
2018-Aug-14 06:00N 54°34' E 011°56'0 0.0
2018-Aug-14 05:30N 54°34' E 011°56'0 0.0
2018-Aug-14 03:12N 54°34' E 011°56'0 0.0
2018-Aug-14 03:00N 54°34' E 011°56'0 0.0
2018-Aug-14 02:30N 54°34' E 011°56'0 0.0
2018-Aug-14 02:00N 54°34' E 011°56'0 0.0
2018-Aug-14 01:30N 54°34' E 011°56'0 0.0
2018-Aug-14 01:00N 54°34' E 011°56'0 0.0
2018-Aug-13 23:45N 54°34' E 011°56'0 0.0
2018-Aug-13 23:30N 54°34' E 011°56'0 0.0
2018-Aug-13 22:59N 54°34' E 011°56'0 0.0
2018-Aug-13 22:30N 54°34' E 011°56'0 0.0
2018-Aug-13 22:00N 54°34' E 011°56'0 0.0
2018-Aug-13 21:30N 54°34' E 011°56'0 0.0
2018-Aug-13 21:00N 54°34' E 011°56'0 0.0
2018-Aug-13 20:30N 54°34' E 011°56'0 0.0
2018-Aug-13 20:00N 54°34' E 011°56'0 0.0
2018-Aug-13 19:30N 54°34' E 011°56'0 0.0
2018-Aug-13 19:00N 54°34' E 011°56'0 0.0
2018-Aug-13 18:30N 54°34' E 011°56'0 0.0
2018-Aug-13 18:00N 54°34' E 011°56'0 0.0
2018-Aug-13 17:30N 54°34' E 011°56'0 0.0
2018-Aug-13 17:00N 54°34' E 011°56'0 0.0
2018-Aug-13 16:30N 54°34' E 011°56'0 0.0
2018-Aug-13 16:00N 54°34' E 011°56'0 0.2
2018-Aug-13 15:30N 54°34' E 011°56'2 3.5
2018-Aug-13 15:00N 54°33' E 011°56'3 6.0
2018-Aug-13 14:30N 54°29' E 011°57'3 5.8
2018-Aug-13 14:00N 54°27' E 011°58'3 5.9
2018-Aug-13 13:30N 54°24' E 011°60'3 5.7
2018-Aug-13 13:00N 54°21' E 012°02'2 4.6
2018-Aug-13 12:30N 54°19' E 012°03'2 4.5
2018-Aug-13 12:00N 54°17' E 012°04'2 4.1
2018-Aug-13 11:30N 54°15' E 012°05'1 2.7
2018-Aug-13 11:00N 54°14' E 012°06'1 2.1
2018-Aug-13 10:30N 54°13' E 012°06'1 1.5
2018-Aug-13 10:00N 54°12' E 012°06'3 5.3
2018-Aug-13 09:30N 54°10' E 012°06'3 6.3
2018-Aug-13 08:59N 54°06' E 012°06'1 1.6
2018-Aug-13 08:22N 54°06' E 012°08'0 0.0
2018-Aug-13 07:58N 54°06' E 012°08'0 0.0
2018-Aug-13 07:28N 54°06' E 012°08'0 0.0
2018-Aug-13 06:58N 54°06' E 012°08'0 0.0
2018-Aug-13 06:25N 54°06' E 012°08'0 0.0
2018-Aug-13 05:58N 54°06' E 012°08'0 0.0
2018-Aug-13 05:28N 54°06' E 012°08'0 0.0
2018-Aug-13 04:37N 54°06' E 012°08'0 0.0
2018-Aug-13 04:10N 54°06' E 012°08'0 0.0
2018-Aug-13 03:55N 54°06' E 012°08'0 0.0
2018-Aug-13 03:25N 54°06' E 012°08'0 0.0
2018-Aug-13 02:55N 54°06' E 012°08'0 0.0
2018-Aug-13 00:28N 54°06' E 012°08'0 0.0
2018-Aug-12 23:55N 54°06' E 012°08'0 0.0
2018-Aug-12 22:31N 54°06' E 012°08'0 0.0
2018-Aug-12 20:16N 54°06' E 012°08'0 0.0
2018-Aug-12 19:58N 54°06' E 012°08'0 0.0
2018-Aug-12 19:25N 54°06' E 012°08'0 0.0
2018-Aug-12 18:25N 54°06' E 012°08'0 0.0
2018-Aug-12 17:28N 54°06' E 012°08'0 0.0
2018-Aug-12 16:28N 54°06' E 012°08'0 0.0
2018-Aug-12 16:00N 54°06' E 012°08'0 0.0
2018-Aug-12 15:31N 54°06' E 012°08'0 0.0
2018-Aug-12 15:00N 54°06' E 012°08'0 0.0
2018-Aug-12 14:30N 54°06' E 012°08'0 0.7
2018-Aug-12 13:55N 54°06' E 012°07'2 4.4
2018-Aug-12 13:30N 54°08' E 012°06'2 3.8
2018-Aug-12 13:00N 54°09' E 012°06'1 2.7
2018-Aug-12 12:31N 54°11' E 012°06'3 5.3
2018-Aug-12 12:00N 54°13' E 012°05'3 6.0
2018-Aug-12 11:28N 54°10' E 012°06'2 4.2
2018-Aug-12 10:58N 54°08' E 012°06'2 4.2
2018-Aug-12 10:28N 54°06' E 012°06'1 1.3
2018-Aug-12 09:47N 54°06' E 012°08'0 0.0
2018-Aug-12 09:29N 54°06' E 012°08'0 0.0
2018-Aug-12 08:59N 54°06' E 012°08'0 0.0
2018-Aug-12 08:29N 54°06' E 012°08'0 0.0
2018-Aug-12 07:50N 54°06' E 012°08'0 0.0
2018-Aug-12 05:41N 54°06' E 012°08'0 0.0
2018-Aug-12 05:20N 54°06' E 012°08'0 0.0
2018-Aug-12 04:53N 54°06' E 012°08'0 0.0
2018-Aug-12 04:29N 54°06' E 012°08'0 0.0
2018-Aug-12 03:53N 54°06' E 012°08'0 0.0
2018-Aug-12 01:35N 54°06' E 012°08'0 0.0
2018-Aug-12 01:20N 54°06' E 012°08'0 0.0
2018-Aug-11 21:21N 54°06' E 012°08'0 0.5
2018-Aug-11 21:00N 54°06' E 012°08'0 0.1
2018-Aug-11 20:30N 54°06' E 012°08'0 0.3
2018-Aug-11 19:58N 54°06' E 012°08'2 4.1
2018-Aug-11 19:29N 54°07' E 012°06'2 4.2
2018-Aug-11 18:59N 54°09' E 012°06'1 1.7
2018-Aug-11 18:30N 54°09' E 012°06'2 4.3
2018-Aug-11 18:00N 54°06' E 012°06'2 0.4
2018-Aug-11 13:13N 54°08' E 012°06'1 2.9
2018-Aug-11 13:00N 54°09' E 012°06'2 2.9
2018-Aug-11 12:26N 54°10' E 012°06'0 0.8
2018-Aug-11 11:57N 54°10' E 012°06'0 0.8
2018-Aug-11 11:29N 54°10' E 012°06'4 5.3
2018-Aug-11 10:48N 54°06' E 012°07'1 3.3
2018-Aug-11 10:29N 54°06' E 012°08'0 0.5
2018-Aug-11 09:53N 54°06' E 012°08'0 0.0
2018-Aug-11 09:22N 54°06' E 012°08'0 0.0
2018-Aug-11 08:56N 54°06' E 012°08'0 0.0
2018-Aug-11 08:27N 54°06' E 012°08'0 0.0
2018-Aug-11 07:48N 54°06' E 012°08'0 0.0
2018-Aug-11 07:29N 54°06' E 012°08'0 0.0
2018-Aug-11 06:48N 54°06' E 012°08'0 0.0
2018-Aug-11 06:24N 54°06' E 012°08'0 0.0
2018-Aug-11 05:57N 54°06' E 012°08'0 0.0
2018-Aug-11 05:22N 54°06' E 012°08'0 0.0
2018-Aug-11 04:58N 54°06' E 012°08'0 0.0
2018-Aug-11 04:26N 54°06' E 012°08'0 0.0
2018-Aug-11 04:00N 54°06' E 012°08'0 0.0
2018-Aug-11 03:30N 54°06' E 012°08'0 0.0
2018-Aug-11 03:00N 54°06' E 012°08'0 0.0
2018-Aug-11 02:30N 54°06' E 012°08'0 0.0
2018-Aug-11 02:00N 54°06' E 012°08'0 0.0
2018-Aug-11 01:15N 54°06' E 012°08'0 0.0
2018-Aug-11 01:00N 54°06' E 012°08'0 0.0
2018-Aug-11 00:30N 54°06' E 012°08'0 0.0
2018-Aug-11 00:00N 54°06' E 012°08'0 0.0
2018-Aug-10 23:30N 54°06' E 012°08'0 0.0
2018-Aug-10 22:58N 54°06' E 012°08'0 0.0
2018-Aug-10 21:53N 54°06' E 012°08'0 0.0
2018-Aug-10 21:28N 54°06' E 012°08'0 0.0
2018-Aug-10 21:00N 54°06' E 012°08'1 2.8
2018-Aug-10 20:30N 54°07' E 012°06'3 4.4
2018-Aug-10 19:56N 54°09' E 012°06'1 3.3
2018-Aug-10 19:29N 54°11' E 012°06'1 1.4
2018-Aug-10 18:59N 54°11' E 012°05'0 0.5
2018-Aug-10 18:18N 54°12' E 012°06'1 2.7
2018-Aug-10 17:59N 54°11' E 012°06'2 3.1
2018-Aug-10 17:29N 54°09' E 012°06'2 3.2
2018-Aug-10 17:00N 54°08' E 012°06'2 1.5
2018-Aug-10 15:30N 54°06' E 012°08'0 0.0
2018-Aug-10 15:00N 54°06' E 012°08'0 0.0
2018-Aug-10 14:30N 54°06' E 012°08'0 0.6
2018-Aug-10 13:46N 54°06' E 012°07'0 1.1
2018-Aug-10 13:24N 54°06' E 012°08'1 2.5
2018-Aug-10 12:51N 54°07' E 012°06'2 4.2
2018-Aug-10 12:27N 54°08' E 012°06'2 3.5
2018-Aug-10 11:59N 54°10' E 012°06'1 1.3
2018-Aug-10 11:30N 54°11' E 012°06'2 4.3
2018-Aug-10 11:00N 54°08' E 012°06'2 4.8
2018-Aug-10 10:30N 54°06' E 012°07'1 0.8
2018-Aug-10 09:28N 54°06' E 012°08'0 0.0
2018-Aug-10 08:57N 54°06' E 012°08'0 0.0
2018-Aug-10 08:30N 54°06' E 012°08'0 0.0
2018-Aug-10 07:59N 54°06' E 012°08'0 0.0
2018-Aug-10 07:30N 54°06' E 012°08'0 0.0
2018-Aug-10 06:54N 54°06' E 012°08'0 0.0
2018-Aug-10 06:12N 54°06' E 012°08'0 0.0
2018-Aug-10 05:46N 54°06' E 012°08'0 0.0
2018-Aug-10 05:30N 54°06' E 012°08'0 0.0
2018-Aug-10 03:52N 54°06' E 012°08'0 0.0
2018-Aug-10 03:28N 54°06' E 012°08'0 0.0
2018-Aug-10 03:00N 54°06' E 012°08'0 0.0
2018-Aug-10 02:30N 54°06' E 012°08'0 0.0
2018-Aug-10 02:00N 54°06' E 012°08'0 0.0
2018-Aug-10 01:30N 54°06' E 012°08'0 0.0
2018-Aug-10 00:56N 54°06' E 012°08'0 0.0
2018-Aug-10 00:30N 54°06' E 012°08'0 0.0
2018-Aug-10 00:00N 54°06' E 012°08'0 0.0
2018-Aug-09 23:28N 54°06' E 012°08'0 0.0
2018-Aug-09 23:00N 54°06' E 012°08'0 0.0
2018-Aug-09 22:26N 54°06' E 012°08'0 0.0
2018-Aug-09 22:00N 54°06' E 012°08'0 0.0
2018-Aug-09 21:29N 54°06' E 012°08'0 0.0
2018-Aug-09 20:47N 54°06' E 012°08'1 2.6
2018-Aug-09 20:26N 54°06' E 012°06'4 5.7
2018-Aug-09 19:48N 54°10' E 012°06'2 5.2
2018-Aug-09 19:30N 54°11' E 012°05'1 1.3
2018-Aug-09 18:55N 54°11' E 012°06'2 4.3
2018-Aug-09 18:30N 54°09' E 012°06'1 2.8
2018-Aug-09 18:00N 54°07' E 012°06'2 2.8
2018-Aug-09 17:26N 54°06' E 012°07'0 1.0
2018-Aug-09 16:57N 54°06' E 012°08'0 0.0
2018-Aug-09 16:30N 54°06' E 012°08'0 0.0
2018-Aug-09 16:00N 54°06' E 012°08'0 0.0
2018-Aug-09 15:21N 54°06' E 012°08'0 0.4
2018-Aug-09 15:00N 54°06' E 012°07'3 4.0
2018-Aug-09 14:19N 54°08' E 012°06'2 4.1
2018-Aug-09 13:56N 54°10' E 012°06'3 6.6
2018-Aug-09 13:25N 54°13' E 012°03'0 0.7
2018-Aug-09 12:58N 54°12' E 012°03'2 3.5
2018-Aug-09 12:29N 54°11' E 012°05'2 4.7
2018-Aug-09 12:00N 54°09' E 012°06'2 4.6
2018-Aug-09 11:30N 54°07' E 012°06'1 0.9
2018-Aug-09 09:57N 54°06' E 012°08'0 0.0
2018-Aug-09 09:27N 54°06' E 012°08'0 0.0
2018-Aug-09 08:57N 54°06' E 012°08'0 0.0
2018-Aug-09 07:57N 54°06' E 012°08'0 0.0
2018-Aug-09 06:37N 54°06' E 012°08'0 0.0
2018-Aug-09 06:13N 54°06' E 012°08'0 0.0
2018-Aug-09 04:37N 54°06' E 012°08'0 0.0
2018-Aug-09 04:15N 54°06' E 012°08'0 0.0
2018-Aug-09 03:55N 54°06' E 012°08'0 0.0
2018-Aug-09 03:19N 54°06' E 012°08'0 0.0
2018-Aug-09 02:55N 54°06' E 012°08'0 0.0
2018-Aug-09 02:25N 54°06' E 012°08'0 0.0
2018-Aug-09 01:57N 54°06' E 012°08'0 0.0
2018-Aug-09 01:21N 54°06' E 012°08'0 0.0
2018-Aug-09 00:51N 54°06' E 012°08'0 0.0
2018-Aug-08 22:27N 54°06' E 012°08'0 0.0
2018-Aug-08 21:51N 54°06' E 012°08'0 0.0
2018-Aug-08 20:27N 54°06' E 012°08'0 0.0
2018-Aug-08 19:57N 54°06' E 012°08'0 0.0
2018-Aug-08 17:51N 54°06' E 012°08'0 0.0
2018-Aug-08 14:27N 54°06' E 012°08'0 0.0
2018-Aug-08 14:01N 54°06' E 012°08'0 0.0
2018-Aug-08 13:27N 54°06' E 012°08'0 0.0
2018-Aug-08 11:45N 54°06' E 012°08'0 0.0
2018-Aug-08 11:27N 54°06' E 012°08'0 0.0
2018-Aug-08 08:55N 54°06' E 012°08'0 0.0
2018-Aug-08 08:19N 54°06' E 012°08'0 0.0
2018-Aug-08 07:57N 54°06' E 012°08'0 0.0
2018-Aug-08 07:27N 54°06' E 012°08'0 0.0
2018-Aug-08 07:01N 54°06' E 012°08'0 0.0
2018-Aug-08 06:15N 54°06' E 012°08'0 0.0
2018-Aug-08 05:57N 54°06' E 012°08'0 0.0
2018-Aug-08 05:21N 54°06' E 012°08'0 0.0
2018-Aug-08 05:01N 54°06' E 012°08'0 0.0
2018-Aug-08 04:27N 54°06' E 012°08'0 0.0
2018-Aug-08 03:55N 54°06' E 012°08'0 0.0
2018-Aug-08 02:25N 54°06' E 012°08'0 0.0
2018-Aug-08 01:57N 54°06' E 012°08'0 0.0
2018-Aug-08 00:55N 54°06' E 012°08'0 0.0
2018-Aug-08 00:27N 54°06' E 012°08'0 0.0
2018-Aug-07 23:57N 54°06' E 012°08'0 0.0
2018-Aug-07 23:31N 54°06' E 012°08'0 0.0
2018-Aug-07 22:43N 54°06' E 012°08'0 0.0
2018-Aug-07 22:27N 54°06' E 012°08'0 0.0
2018-Aug-07 21:51N 54°06' E 012°08'0 0.0
2018-Aug-07 21:25N 54°06' E 012°08'0 0.0
2018-Aug-07 20:22N 54°06' E 012°08'0 0.6
2018-Aug-07 20:00N 54°06' E 012°07'3 5.8
2018-Aug-07 19:30N 54°08' E 012°06'3 5.9
2018-Aug-07 19:01N 54°11' E 012°05'1 1.1
2018-Aug-07 18:25N 54°12' E 012°07'0 0.0
2018-Aug-07 17:55N 54°12' E 012°07'0 0.0
2018-Aug-07 17:28N 54°12' E 012°07'0 0.0
2018-Aug-07 16:43N 54°12' E 012°07'0 0.0
2018-Aug-07 16:28N 54°12' E 012°07'1 1.1
2018-Aug-07 15:59N 54°12' E 012°06'2 3.5
2018-Aug-07 15:30N 54°14' E 012°06'3 4.1
2018-Aug-07 14:53N 54°16' E 012°06'7 4.4
2018-Aug-07 13:14N 54°23' E 012°06'2 6.4
2018-Aug-07 13:00N 54°25' E 012°06'3 5.8
2018-Aug-07 12:30N 54°28' E 012°06'2 4.5
2018-Aug-07 11:59N 54°30' E 012°07'3 5.6
2018-Aug-07 11:30N 54°32' E 012°08'4 7.0
2018-Aug-07 11:00N 54°36' E 012°10'4 7.4
2018-Aug-07 10:30N 54°39' E 012°13'3 6.5
2018-Aug-07 09:59N 54°42' E 012°15'5 4.7
2018-Aug-07 08:51N 54°46' E 012°21'2 6.2
2018-Aug-07 08:29N 54°48' E 012°23'4 7.7
2018-Aug-07 08:00N 54°51' E 012°28'4 7.0
2018-Aug-07 07:25N 54°54' E 012°32'3 6.3
2018-Aug-07 07:00N 54°57' E 012°34'3 6.0
2018-Aug-07 06:30N 54°60' E 012°34'3 6.4
2018-Aug-07 06:00N 55°03' E 012°36'3 6.1
2018-Aug-07 05:30N 55°06' E 012°36'3 6.2
2018-Aug-07 05:00N 55°09' E 012°36'3 6.2
2018-Aug-07 04:30N 55°12' E 012°35'3 6.0
2018-Aug-07 04:00N 55°15' E 012°35'3 6.1
2018-Aug-07 03:30N 55°18' E 012°35'3 6.1
2018-Aug-07 03:00N 55°21' E 012°36'3 6.7
2018-Aug-07 02:30N 55°24' E 012°37'3 6.4
2018-Aug-07 02:00N 55°27' E 012°39'3 6.2
2018-Aug-07 01:30N 55°30' E 012°40'3 5.8
2018-Aug-07 00:59N 55°33' E 012°41'3 6.2
2018-Aug-07 00:30N 55°36' E 012°42'3 6.3
2018-Aug-07 00:00N 55°39' E 012°41'3 6.6
2018-Aug-06 23:30N 55°43' E 012°41'3 7.0
2018-Aug-06 23:00N 55°46' E 012°41'4 7.3
2018-Aug-06 22:30N 55°50' E 012°39'3 7.0
2018-Aug-06 22:00N 55°53' E 012°38'4 7.0
2018-Aug-06 21:30N 55°57' E 012°37'3 6.7
2018-Aug-06 21:00N 55°60' E 012°38'3 6.6
2018-Aug-06 20:30N 56°03' E 012°38'4 7.2
2018-Aug-06 20:00N 56°06' E 012°33'4 7.1
2018-Aug-06 19:27N 56°08' E 012°28'89 6.4
2018-Aug-06 05:37N 57°17' E 010°45'4 6.0
2018-Aug-06 04:58N 57°19' E 010°52'2 1.4
2018-Aug-06 03:23N 57°18' E 010°55'0 0.0
2018-Aug-06 02:05N 57°18' E 010°55'0 0.0
2018-Aug-06 01:05N 57°18' E 010°55'0 0.0
2018-Aug-06 00:59N 57°18' E 010°55'0 0.0
2018-Aug-06 00:20N 57°18' E 010°55'0 0.0
2018-Aug-05 23:59N 57°18' E 010°55'0 0.0
2018-Aug-05 22:29N 57°18' E 010°56'0 0.0
2018-Aug-05 19:53N 57°18' E 010°55'0 0.0
2018-Aug-05 19:17N 57°18' E 010°55'0 0.0
2018-Aug-05 16:17N 57°18' E 010°55'0 0.0
2018-Aug-05 12:11N 57°18' E 010°55'0 0.0
2018-Aug-05 11:29N 57°18' E 010°56'0 0.0
2018-Aug-05 09:11N 57°18' E 010°55'0 0.0
2018-Aug-05 08:50N 57°18' E 010°55'0 0.0
2018-Aug-05 06:17N 57°18' E 010°55'0 0.0
2018-Aug-05 05:56N 57°18' E 010°55'0 0.0
2018-Aug-05 05:17N 57°18' E 010°55'0 0.0
2018-Aug-05 04:59N 57°18' E 010°55'0 0.0
2018-Aug-05 03:08N 57°18' E 010°55'0 0.0
2018-Aug-05 02:59N 57°18' E 010°55'0 0.0
2018-Aug-05 02:29N 57°18' E 010°55'0 0.0
2018-Aug-04 23:47N 57°18' E 010°55'0 0.0
2018-Aug-04 23:11N 57°18' E 010°55'0 0.0
2018-Aug-04 18:17N 57°18' E 010°55'0 0.0
2018-Aug-04 17:59N 57°18' E 010°55'0 0.0
2018-Aug-04 17:11N 57°18' E 010°55'0 0.0
2018-Aug-04 16:23N 57°18' E 010°55'0 0.0
2018-Aug-04 15:05N 57°18' E 010°55'0 0.0
2018-Aug-04 14:41N 57°18' E 010°55'0 0.0
2018-Aug-04 14:30N 57°18' E 010°55'1 3.1
2018-Aug-04 14:00N 57°19' E 010°53'2 3.3
2018-Aug-04 13:30N 57°20' E 010°52'4 7.3
2018-Aug-04 13:00N 57°23' E 010°49'4 7.5
2018-Aug-04 12:30N 57°27' E 010°47'4 7.1
2018-Aug-04 12:00N 57°30' E 010°45'4 7.7
2018-Aug-04 11:30N 57°34' E 010°45'4 7.2
2018-Aug-04 11:00N 57°38' E 010°47'4 8.5
2018-Aug-04 10:30N 57°42' E 010°47'4 8.3
2018-Aug-04 10:00N 57°46' E 010°48'4 8.4
2018-Aug-04 09:30N 57°50' E 010°45'4 8.2
2018-Aug-04 09:00N 57°53' E 010°39'4 7.8
2018-Aug-04 08:29N 57°55' E 010°34'4 7.4
2018-Aug-04 08:00N 57°58' E 010°28'4 6.7
2018-Aug-04 07:24N 57°59' E 010°21'  
Track history (hours):
 
Tides and Currents Weather Stations Pressure Air Temp Water Temp Dewpoint Dewpoint Depression Visibility Wind Speed Wind Dir Waves Ship Positions

Abel Tasman (Netherlands)

Last reported at 2018-Aug-14 07:00 UTC. Time now 2018-Aug-14 07:04 UTC.
Position N 54°34' E 011°56'.

Length 38 m; draft 2.4 m.

Type: Sailing vessel. MMSI: 245877000.

Date/timePositionNaut miles runAvg speedWind from/ knotsBaromVisibWave heightAir tempDewpointWater temp
2018-Aug-14 07:00N 54°34' E 011°56'0 0.0
2018-Aug-14 06:30N 54°34' E 011°56'0 0.0
2018-Aug-14 06:00N 54°34' E 011°56'0 0.0
2018-Aug-14 05:30N 54°34' E 011°56'0 0.0
2018-Aug-14 03:12N 54°34' E 011°56'0 0.0
2018-Aug-14 03:00N 54°34' E 011°56'0 0.0
2018-Aug-14 02:30N 54°34' E 011°56'0 0.0
2018-Aug-14 02:00N 54°34' E 011°56'0 0.0
2018-Aug-14 01:30N 54°34' E 011°56'0 0.0
2018-Aug-14 01:00N 54°34' E 011°56'0 0.0
2018-Aug-13 23:45N 54°34' E 011°56'0 0.0
2018-Aug-13 23:30N 54°34' E 011°56'0 0.0
2018-Aug-13 22:59N 54°34' E 011°56'0 0.0
2018-Aug-13 22:30N 54°34' E 011°56'0 0.0
2018-Aug-13 22:00N 54°34' E 011°56'0 0.0
2018-Aug-13 21:30N 54°34' E 011°56'0 0.0
2018-Aug-13 21:00N 54°34' E 011°56'0 0.0
2018-Aug-13 20:30N 54°34' E 011°56'0 0.0
2018-Aug-13 20:00N 54°34' E 011°56'0 0.0
2018-Aug-13 19:30N 54°34' E 011°56'0 0.0
2018-Aug-13 19:00N 54°34' E 011°56'0 0.0
2018-Aug-13 18:30N 54°34' E 011°56'0 0.0
2018-Aug-13 18:00N 54°34' E 011°56'0 0.0
2018-Aug-13 17:30N 54°34' E 011°56'0 0.0
2018-Aug-13 17:00N 54°34' E 011°56'0 0.0
2018-Aug-13 16:30N 54°34' E 011°56'0 0.0
2018-Aug-13 16:00N 54°34' E 011°56'0 0.2
2018-Aug-13 15:30N 54°34' E 011°56'2 3.5
2018-Aug-13 15:00N 54°33' E 011°56'3 6.0
2018-Aug-13 14:30N 54°29' E 011°57'3 5.8
2018-Aug-13 14:00N 54°27' E 011°58'3 5.9
2018-Aug-13 13:30N 54°24' E 011°60'3 5.7
2018-Aug-13 13:00N 54°21' E 012°02'2 4.6
2018-Aug-13 12:30N 54°19' E 012°03'2 4.5
2018-Aug-13 12:00N 54°17' E 012°04'2 4.1
2018-Aug-13 11:30N 54°15' E 012°05'1 2.7
2018-Aug-13 11:00N 54°14' E 012°06'1 2.1
2018-Aug-13 10:30N 54°13' E 012°06'1 1.5
2018-Aug-13 10:00N 54°12' E 012°06'3 5.3
2018-Aug-13 09:30N 54°10' E 012°06'3 6.3
2018-Aug-13 08:59N 54°06' E 012°06'1 1.6
2018-Aug-13 08:22N 54°06' E 012°08'0 0.0
2018-Aug-13 07:58N 54°06' E 012°08'0 0.0
2018-Aug-13 07:28N 54°06' E 012°08'0 0.0
2018-Aug-13 06:58N 54°06' E 012°08'0 0.0
2018-Aug-13 06:25N 54°06' E 012°08'0 0.0
2018-Aug-13 05:58N 54°06' E 012°08'0 0.0
2018-Aug-13 05:28N 54°06' E 012°08'0 0.0
2018-Aug-13 04:37N 54°06' E 012°08'0 0.0
2018-Aug-13 04:10N 54°06' E 012°08'0 0.0
2018-Aug-13 03:55N 54°06' E 012°08'0 0.0
2018-Aug-13 03:25N 54°06' E 012°08'0 0.0
2018-Aug-13 02:55N 54°06' E 012°08'0 0.0
2018-Aug-13 00:28N 54°06' E 012°08'0 0.0
2018-Aug-12 23:55N 54°06' E 012°08'0 0.0
2018-Aug-12 22:31N 54°06' E 012°08'0 0.0
2018-Aug-12 20:16N 54°06' E 012°08'0 0.0
2018-Aug-12 19:58N 54°06' E 012°08'0 0.0
2018-Aug-12 19:25N 54°06' E 012°08'0 0.0
2018-Aug-12 18:25N 54°06' E 012°08'0 0.0
2018-Aug-12 17:28N 54°06' E 012°08'0 0.0
2018-Aug-12 16:28N 54°06' E 012°08'0 0.0
2018-Aug-12 16:00N 54°06' E 012°08'0 0.0
2018-Aug-12 15:31N 54°06' E 012°08'0 0.0
2018-Aug-12 15:00N 54°06' E 012°08'0 0.0
2018-Aug-12 14:30N 54°06' E 012°08'0 0.7
2018-Aug-12 13:55N 54°06' E 012°07'2 4.4
2018-Aug-12 13:30N 54°08' E 012°06'2 3.8
2018-Aug-12 13:00N 54°09' E 012°06'1 2.7
2018-Aug-12 12:31N 54°11' E 012°06'3 5.3
2018-Aug-12 12:00N 54°13' E 012°05'3 6.0
2018-Aug-12 11:28N 54°10' E 012°06'2 4.2
2018-Aug-12 10:58N 54°08' E 012°06'2 4.2
2018-Aug-12 10:28N 54°06' E 012°06'1 1.3
2018-Aug-12 09:47N 54°06' E 012°08'0 0.0
2018-Aug-12 09:29N 54°06' E 012°08'0 0.0
2018-Aug-12 08:59N 54°06' E 012°08'0 0.0
2018-Aug-12 08:29N 54°06' E 012°08'0 0.0
2018-Aug-12 07:50N 54°06' E 012°08'0 0.0
2018-Aug-12 05:41N 54°06' E 012°08'0 0.0
2018-Aug-12 05:20N 54°06' E 012°08'0 0.0
2018-Aug-12 04:53N 54°06' E 012°08'0 0.0
2018-Aug-12 04:29N 54°06' E 012°08'0 0.0
2018-Aug-12 03:53N 54°06' E 012°08'0 0.0
2018-Aug-12 01:35N 54°06' E 012°08'0 0.0
2018-Aug-12 01:20N 54°06' E 012°08'0 0.0
2018-Aug-11 21:21N 54°06' E 012°08'0 0.5
2018-Aug-11 21:00N 54°06' E 012°08'0 0.1
2018-Aug-11 20:30N 54°06' E 012°08'0 0.3
2018-Aug-11 19:58N 54°06' E 012°08'2 4.1
2018-Aug-11 19:29N 54°07' E 012°06'2 4.2
2018-Aug-11 18:59N 54°09' E 012°06'1 1.7
2018-Aug-11 18:30N 54°09' E 012°06'2 4.3
2018-Aug-11 18:00N 54°06' E 012°06'2 0.4
2018-Aug-11 13:13N 54°08' E 012°06'1 2.9
2018-Aug-11 13:00N 54°09' E 012°06'2 2.9
2018-Aug-11 12:26N 54°10' E 012°06'0 0.8
2018-Aug-11 11:57N 54°10' E 012°06'0 0.8
2018-Aug-11 11:29N 54°10' E 012°06'4 5.3
2018-Aug-11 10:48N 54°06' E 012°07'1 3.3
2018-Aug-11 10:29N 54°06' E 012°08'0 0.5
2018-Aug-11 09:53N 54°06' E 012°08'0 0.0
2018-Aug-11 09:22N 54°06' E 012°08'0 0.0
2018-Aug-11 08:56N 54°06' E 012°08'0 0.0
2018-Aug-11 08:27N 54°06' E 012°08'0 0.0
2018-Aug-11 07:48N 54°06' E 012°08'0 0.0
2018-Aug-11 07:29N 54°06' E 012°08'0 0.0
2018-Aug-11 06:48N 54°06' E 012°08'0 0.0
2018-Aug-11 06:24N 54°06' E 012°08'0 0.0
2018-Aug-11 05:57N 54°06' E 012°08'0 0.0
2018-Aug-11 05:22N 54°06' E 012°08'0 0.0
2018-Aug-11 04:58N 54°06' E 012°08'0 0.0
2018-Aug-11 04:26N 54°06' E 012°08'0 0.0
2018-Aug-11 04:00N 54°06' E 012°08'0 0.0
2018-Aug-11 03:30N 54°06' E 012°08'0 0.0
2018-Aug-11 03:00N 54°06' E 012°08'0 0.0
2018-Aug-11 02:30N 54°06' E 012°08'0 0.0
2018-Aug-11 02:00N 54°06' E 012°08'0 0.0
2018-Aug-11 01:15N 54°06' E 012°08'0 0.0
2018-Aug-11 01:00N 54°06' E 012°08'0 0.0
2018-Aug-11 00:30N 54°06' E 012°08'0 0.0
2018-Aug-11 00:00N 54°06' E 012°08'0 0.0
2018-Aug-10 23:30N 54°06' E 012°08'0 0.0
2018-Aug-10 22:58N 54°06' E 012°08'0 0.0
2018-Aug-10 21:53N 54°06' E 012°08'0 0.0
2018-Aug-10 21:28N 54°06' E 012°08'0 0.0
2018-Aug-10 21:00N 54°06' E 012°08'1 2.8
2018-Aug-10 20:30N 54°07' E 012°06'3 4.4
2018-Aug-10 19:56N 54°09' E 012°06'1 3.3
2018-Aug-10 19:29N 54°11' E 012°06'1 1.4
2018-Aug-10 18:59N 54°11' E 012°05'0 0.5
2018-Aug-10 18:18N 54°12' E 012°06'1 2.7
2018-Aug-10 17:59N 54°11' E 012°06'2 3.1
2018-Aug-10 17:29N 54°09' E 012°06'2 3.2
2018-Aug-10 17:00N 54°08' E 012°06'2 1.5
2018-Aug-10 15:30N 54°06' E 012°08'0 0.0
2018-Aug-10 15:00N 54°06' E 012°08'0 0.0
2018-Aug-10 14:30N 54°06' E 012°08'0 0.6
2018-Aug-10 13:46N 54°06' E 012°07'0 1.1
2018-Aug-10 13:24N 54°06' E 012°08'1 2.5
2018-Aug-10 12:51N 54°07' E 012°06'2 4.2
2018-Aug-10 12:27N 54°08' E 012°06'2 3.5
2018-Aug-10 11:59N 54°10' E 012°06'1 1.3
2018-Aug-10 11:30N 54°11' E 012°06'2 4.3
2018-Aug-10 11:00N 54°08' E 012°06'2 4.8
2018-Aug-10 10:30N 54°06' E 012°07'1 0.8
2018-Aug-10 09:28N 54°06' E 012°08'0 0.0
2018-Aug-10 08:57N 54°06' E 012°08'0 0.0
2018-Aug-10 08:30N 54°06' E 012°08'0 0.0
2018-Aug-10 07:59N 54°06' E 012°08'0 0.0
2018-Aug-10 07:30N 54°06' E 012°08'0 0.0
2018-Aug-10 06:54N 54°06' E 012°08'0 0.0
2018-Aug-10 06:12N 54°06' E 012°08'0 0.0
2018-Aug-10 05:46N 54°06' E 012°08'0 0.0
2018-Aug-10 05:30N 54°06' E 012°08'0 0.0
2018-Aug-10 03:52N 54°06' E 012°08'0 0.0
2018-Aug-10 03:28N 54°06' E 012°08'0 0.0
2018-Aug-10 03:00N 54°06' E 012°08'0 0.0
2018-Aug-10 02:30N 54°06' E 012°08'0 0.0
2018-Aug-10 02:00N 54°06' E 012°08'0 0.0
2018-Aug-10 01:30N 54°06' E 012°08'0 0.0
2018-Aug-10 00:56N 54°06' E 012°08'0 0.0
2018-Aug-10 00:30N 54°06' E 012°08'0 0.0
2018-Aug-10 00:00N 54°06' E 012°08'0 0.0
2018-Aug-09 23:28N 54°06' E 012°08'0 0.0
2018-Aug-09 23:00N 54°06' E 012°08'0 0.0
2018-Aug-09 22:26N 54°06' E 012°08'0 0.0
2018-Aug-09 22:00N 54°06' E 012°08'0 0.0
2018-Aug-09 21:29N 54°06' E 012°08'0 0.0
2018-Aug-09 20:47N 54°06' E 012°08'1 2.6
2018-Aug-09 20:26N 54°06' E 012°06'4 5.7
2018-Aug-09 19:48N 54°10' E 012°06'2 5.2
2018-Aug-09 19:30N 54°11' E 012°05'1 1.3
2018-Aug-09 18:55N 54°11' E 012°06'2 4.3
2018-Aug-09 18:30N 54°09' E 012°06'1 2.8
2018-Aug-09 18:00N 54°07' E 012°06'2 2.8
2018-Aug-09 17:26N 54°06' E 012°07'0 1.0
2018-Aug-09 16:57N 54°06' E 012°08'0 0.0
2018-Aug-09 16:30N 54°06' E 012°08'0 0.0
2018-Aug-09 16:00N 54°06' E 012°08'0 0.0
2018-Aug-09 15:21N 54°06' E 012°08'0 0.4
2018-Aug-09 15:00N 54°06' E 012°07'3 4.0
2018-Aug-09 14:19N 54°08' E 012°06'2 4.1
2018-Aug-09 13:56N 54°10' E 012°06'3 6.6
2018-Aug-09 13:25N 54°13' E 012°03'0 0.7
2018-Aug-09 12:58N 54°12' E 012°03'2 3.5
2018-Aug-09 12:29N 54°11' E 012°05'2 4.7
2018-Aug-09 12:00N 54°09' E 012°06'2 4.6
2018-Aug-09 11:30N 54°07' E 012°06'1 0.9
2018-Aug-09 09:57N 54°06' E 012°08'0 0.0
2018-Aug-09 09:27N 54°06' E 012°08'0 0.0
2018-Aug-09 08:57N 54°06' E 012°08'0 0.0
2018-Aug-09 07:57N 54°06' E 012°08'0 0.0
2018-Aug-09 06:37N 54°06' E 012°08'0 0.0
2018-Aug-09 06:13N 54°06' E 012°08'0 0.0
2018-Aug-09 04:37N 54°06' E 012°08'0 0.0
2018-Aug-09 04:15N 54°06' E 012°08'0 0.0
2018-Aug-09 03:55N 54°06' E 012°08'0 0.0
2018-Aug-09 03:19N 54°06' E 012°08'0 0.0
2018-Aug-09 02:55N 54°06' E 012°08'0 0.0
2018-Aug-09 02:25N 54°06' E 012°08'0 0.0
2018-Aug-09 01:57N 54°06' E 012°08'0 0.0
2018-Aug-09 01:21N 54°06' E 012°08'0 0.0
2018-Aug-09 00:51N 54°06' E 012°08'0 0.0
2018-Aug-08 22:27N 54°06' E 012°08'0 0.0
2018-Aug-08 21:51N 54°06' E 012°08'0 0.0
2018-Aug-08 20:27N 54°06' E 012°08'0 0.0
2018-Aug-08 19:57N 54°06' E 012°08'0 0.0
2018-Aug-08 17:51N 54°06' E 012°08'0 0.0
2018-Aug-08 14:27N 54°06' E 012°08'0 0.0
2018-Aug-08 14:01N 54°06' E 012°08'0 0.0
2018-Aug-08 13:27N 54°06' E 012°08'0 0.0
2018-Aug-08 11:45N 54°06' E 012°08'0 0.0
2018-Aug-08 11:27N 54°06' E 012°08'0 0.0
2018-Aug-08 08:55N 54°06' E 012°08'0 0.0
2018-Aug-08 08:19N 54°06' E 012°08'0 0.0
2018-Aug-08 07:57N 54°06' E 012°08'0 0.0
2018-Aug-08 07:27N 54°06' E 012°08'0 0.0
2018-Aug-08 07:01N 54°06' E 012°08'0 0.0
2018-Aug-08 06:15N 54°06' E 012°08'0 0.0
2018-Aug-08 05:57N 54°06' E 012°08'0 0.0
2018-Aug-08 05:21N 54°06' E 012°08'0 0.0
2018-Aug-08 05:01N 54°06' E 012°08'0 0.0
2018-Aug-08 04:27N 54°06' E 012°08'0 0.0
2018-Aug-08 03:55N 54°06' E 012°08'0 0.0
2018-Aug-08 02:25N 54°06' E 012°08'0 0.0
2018-Aug-08 01:57N 54°06' E 012°08'0 0.0
2018-Aug-08 00:55N 54°06' E 012°08'0 0.0
2018-Aug-08 00:27N 54°06' E 012°08'0 0.0
2018-Aug-07 23:57N 54°06' E 012°08'0 0.0
2018-Aug-07 23:31N 54°06' E 012°08'0 0.0
2018-Aug-07 22:43N 54°06' E 012°08'0 0.0
2018-Aug-07 22:27N 54°06' E 012°08'0 0.0
2018-Aug-07 21:51N 54°06' E 012°08'0 0.0
2018-Aug-07 21:25N 54°06' E 012°08'0 0.0
2018-Aug-07 20:22N 54°06' E 012°08'0 0.6
2018-Aug-07 20:00N 54°06' E 012°07'3 5.8
2018-Aug-07 19:30N 54°08' E 012°06'3 5.9
2018-Aug-07 19:01N 54°11' E 012°05'1 1.1
2018-Aug-07 18:25N 54°12' E 012°07'0 0.0
2018-Aug-07 17:55N 54°12' E 012°07'0 0.0
2018-Aug-07 17:28N 54°12' E 012°07'0 0.0
2018-Aug-07 16:43N 54°12' E 012°07'0 0.0
2018-Aug-07 16:28N 54°12' E 012°07'1 1.1
2018-Aug-07 15:59N 54°12' E 012°06'2 3.5
2018-Aug-07 15:30N 54°14' E 012°06'3 4.1
2018-Aug-07 14:53N 54°16' E 012°06'7 4.4
2018-Aug-07 13:14N 54°23' E 012°06'2 6.4
2018-Aug-07 13:00N 54°25' E 012°06'3 5.8
2018-Aug-07 12:30N 54°28' E 012°06'2 4.5
2018-Aug-07 11:59N 54°30' E 012°07'3 5.6
2018-Aug-07 11:30N 54°32' E 012°08'4 7.0
2018-Aug-07 11:00N 54°36' E 012°10'4 7.4
2018-Aug-07 10:30N 54°39' E 012°13'3 6.5
2018-Aug-07 09:59N 54°42' E 012°15'5 4.7
2018-Aug-07 08:51N 54°46' E 012°21'2 6.2
2018-Aug-07 08:29N 54°48' E 012°23'4 7.7
2018-Aug-07 08:00N 54°51' E 012°28'4 7.0
2018-Aug-07 07:25N 54°54' E 012°32'3 6.3
2018-Aug-07 07:00N 54°57' E 012°34'3 6.0
2018-Aug-07 06:30N 54°60' E 012°34'3 6.4
2018-Aug-07 06:00N 55°03' E 012°36'3 6.1
2018-Aug-07 05:30N 55°06' E 012°36'3 6.2
2018-Aug-07 05:00N 55°09' E 012°36'3 6.2
2018-Aug-07 04:30N 55°12' E 012°35'3 6.0
2018-Aug-07 04:00N 55°15' E 012°35'3 6.1
2018-Aug-07 03:30N 55°18' E 012°35'3 6.1
2018-Aug-07 03:00N 55°21' E 012°36'3 6.7
2018-Aug-07 02:30N 55°24' E 012°37'3 6.4
2018-Aug-07 02:00N 55°27' E 012°39'3 6.2
2018-Aug-07 01:30N 55°30' E 012°40'3 5.8
2018-Aug-07 00:59N 55°33' E 012°41'3 6.2
2018-Aug-07 00:30N 55°36' E 012°42'3 6.3
2018-Aug-07 00:00N 55°39' E 012°41'3 6.6
2018-Aug-06 23:30N 55°43' E 012°41'3 7.0
2018-Aug-06 23:00N 55°46' E 012°41'4 7.3
2018-Aug-06 22:30N 55°50' E 012°39'3 7.0
2018-Aug-06 22:00N 55°53' E 012°38'4 7.0
2018-Aug-06 21:30N 55°57' E 012°37'3 6.7
2018-Aug-06 21:00N 55°60' E 012°38'3 6.6
2018-Aug-06 20:30N 56°03' E 012°38'4 7.2
2018-Aug-06 20:00N 56°06' E 012°33'4 7.1
2018-Aug-06 19:27N 56°08' E 012°28'89 6.4
2018-Aug-06 05:37N 57°17' E 010°45'4 6.0
2018-Aug-06 04:58N 57°19' E 010°52'2 1.4
2018-Aug-06 03:23N 57°18' E 010°55'0 0.0
2018-Aug-06 02:05N 57°18' E 010°55'0 0.0
2018-Aug-06 01:05N 57°18' E 010°55'0 0.0
2018-Aug-06 00:59N 57°18' E 010°55'0 0.0
2018-Aug-06 00:20N 57°18' E 010°55'0 0.0
2018-Aug-05 23:59N 57°18' E 010°55'0 0.0
2018-Aug-05 22:29N 57°18' E 010°56'0 0.0
2018-Aug-05 19:53N 57°18' E 010°55'0 0.0
2018-Aug-05 19:17N 57°18' E 010°55'0 0.0
2018-Aug-05 16:17N 57°18' E 010°55'0 0.0
2018-Aug-05 12:11N 57°18' E 010°55'0 0.0
2018-Aug-05 11:29N 57°18' E 010°56'0 0.0
2018-Aug-05 09:11N 57°18' E 010°55'0 0.0
2018-Aug-05 08:50N 57°18' E 010°55'0 0.0
2018-Aug-05 06:17N 57°18' E 010°55'0 0.0
2018-Aug-05 05:56N 57°18' E 010°55'0 0.0
2018-Aug-05 05:17N 57°18' E 010°55'0 0.0
2018-Aug-05 04:59N 57°18' E 010°55'0 0.0
2018-Aug-05 03:08N 57°18' E 010°55'0 0.0
2018-Aug-05 02:59N 57°18' E 010°55'0 0.0
2018-Aug-05 02:29N 57°18' E 010°55'0 0.0
2018-Aug-04 23:47N 57°18' E 010°55'0 0.0
2018-Aug-04 23:11N 57°18' E 010°55'0 0.0
2018-Aug-04 18:17N 57°18' E 010°55'0 0.0
2018-Aug-04 17:59N 57°18' E 010°55'0 0.0
2018-Aug-04 17:11N 57°18' E 010°55'0 0.0
2018-Aug-04 16:23N 57°18' E 010°55'0 0.0
2018-Aug-04 15:05N 57°18' E 010°55'0 0.0
2018-Aug-04 14:41N 57°18' E 010°55'0 0.0
2018-Aug-04 14:30N 57°18' E 010°55'1 3.1
2018-Aug-04 14:00N 57°19' E 010°53'2 3.3
2018-Aug-04 13:30N 57°20' E 010°52'4 7.3
2018-Aug-04 13:00N 57°23' E 010°49'4 7.5
2018-Aug-04 12:30N 57°27' E 010°47'4 7.1
2018-Aug-04 12:00N 57°30' E 010°45'4 7.7
2018-Aug-04 11:30N 57°34' E 010°45'4 7.2
2018-Aug-04 11:00N 57°38' E 010°47'4 8.5
2018-Aug-04 10:30N 57°42' E 010°47'4 8.3
2018-Aug-04 10:00N 57°46' E 010°48'4 8.4
2018-Aug-04 09:30N 57°50' E 010°45'4 8.2
2018-Aug-04 09:00N 57°53' E 010°39'4 7.8
2018-Aug-04 08:29N 57°55' E 010°34'4 7.4
2018-Aug-04 08:00N 57°58' E 010°28'4 6.7
2018-Aug-04 07:24N 57°59' E 010°21'  

Dump ship's entire track history